首页
METAR-TAF:

METAR-TAF

机场 :

馬拉博, 赤道几内亚

馬拉博機場

纬度: 03-45-18N, 经度: 08-42-31E, 海拔: 23米

当前天气观测

该预报发布于31分钟前的14:00 UTC
风速7节,风向西,在南转西南西转西北之间变化
温度 31°C
湿度 66%
气压 1008 hPa
能见度10公里或以上
少量云层高于1300英尺

METAR: FGSL 221400Z 26007KT 210V300 9999 FEW013 31/24 Q1008 NOSIG

时间: 15:31 (14:31 UTC)

预报

该预报发布于3小时和31分钟前的11:00 UTC
预报有效从22日的 12点(UTC)到 23日的 18点(UTC)
风速8节,风向西转西南
能见度10公里或以上
散云层高于1000英尺
几率 30% :
短暂存在
从 22日的 23点(UTC)到 23日的 06点(UTC)
多云层高于1000英尺
少量云层高于1800英尺, 积雨云.
雷暴
几率 30% :
短暂存在
从 23日的 10点(UTC)到 23日的 14点(UTC)
多云层高于1000英尺
少量云层高于2000英尺, 积雨云.

TAF: FGSL 221100Z 2212/2318 24008KT 9999 SCT010 PROB30 TEMPO 2223/2306 TS BKN010 FEW018CB PROB30 TEMPO 2310/2314 BKN010 FEW020CB

超过4000个机场的气象观测和天气预报(METAR&TAF报告)。

可查询的气象台以黄色和红色小点在地图上表示。

将鼠标移到小点上方,可查看气象台名称。

然后点击查看天气观测和预报。

如需切换地图:点击带黑十字的绿色按钮放大地图;点击带横线的绿色按钮缩小地图;或者点击绿色箭头查看邻近地区的地图。


METAR-TAF: